Time;durP1;ratioP1;P1;durP2;ratioP2;P2;SDS_P1;SDS_P2;PMS_P1;PMS_P2;Temp;Humidity;BMP_temperature;BMP_pressure;BME280_temperature;BME280_humidity;BME280_pressure;Samples;Min_cycle;Max_cycle;Signal;HPM_P1;HPM_P2
2021/09/26 00:01:56;;;;;;;;;22.50;21.50;;;;;19.11;68.09;100623.06;5057805;28;45260;-60
2021/09/26 00:04:21;;;;;;;;;23.00;19.75;;;;;19.08;68.18;100617.31;5057246;28;61150;-60
2021/09/26 00:06:47;;;;;;;;;24.00;21.50;;;;;19.03;68.10;100615.25;5057929;28;45233;-60
2021/09/26 00:09:12;;;;;;;;;21.25;20.25;;;;;18.99;68.28;100619.28;5056846;28;68543;-60
2021/09/26 00:11:40;;;;;;;;;23.25;19.00;;;;;18.95;68.19;100610.00;5056754;28;68259;-60
2021/09/26 00:14:06;;;;;;;;;22.25;21.25;;;;;18.91;68.18;100614.88;5057839;28;45393;-60
2021/09/26 00:16:31;;;;;;;;;20.50;18.25;;;;;18.90;68.42;100618.53;5056939;28;61156;-60
2021/09/26 00:18:56;;;;;;;;;25.50;21.00;;;;;18.87;68.35;100612.78;5057397;28;46029;-60
2021/09/26 00:21:22;;;;;;;;;20.25;18.00;;;;;18.87;68.28;100623.44;5056417;28;70424;-60
2021/09/26 00:23:49;;;;;;;;;21.50;19.00;;;;;18.84;68.48;100620.13;5035103;28;66371;-60
2021/09/26 00:26:14;;;;;;;;;20.00;17.25;;;;;18.82;68.04;100624.81;5069603;28;45519;-60
2021/09/26 00:28:39;;;;;;;;;19.00;18.00;;;;;18.79;68.28;100622.53;5036326;28;72015;-60
2021/09/26 00:31:05;;;;;;;;;22.50;20.75;;;;;18.74;68.02;100630.25;5035068;28;62904;-60
2021/09/26 00:33:30;;;;;;;;;18.50;16.25;;;;;18.72;68.29;100626.94;5037310;28;45324;-60
2021/09/26 00:35:56;;;;;;;;;18.50;17.00;;;;;18.70;68.12;100626.31;5037279;28;45228;-59
2021/09/26 00:38:21;;;;;;;;;18.50;15.75;;;;;18.68;68.52;100620.34;5037053;28;45379;-59
2021/09/26 00:40:47;;;;;;;;;19.00;17.00;;;;;18.65;68.55;100631.38;5037036;28;45337;-60
2021/09/26 00:43:12;;;;;;;;;17.75;16.50;;;;;18.62;68.34;100627.25;5037036;28;45335;-60
2021/09/26 00:45:38;;;;;;;;;17.00;15.00;;;;;18.60;68.45;100647.06;5036592;28;52787;-60
2021/09/26 00:48:03;;;;;;;;;18.50;17.75;;;;;18.56;68.62;100654.63;5037095;28;45300;-59
2021/09/26 00:50:29;;;;;;;;;21.25;17.50;;;;;18.54;68.84;100644.19;5036401;28;56697;-60
2021/09/26 00:52:55;;;;;;;;;17.25;14.25;;;;;18.52;68.77;100653.34;5037135;28;45430;-60
2021/09/26 00:55:20;;;;;;;;;16.75;15.50;;;;;18.48;68.79;100644.06;5036992;28;45556;-60
2021/09/26 00:57:46;;;;;;;;;18.75;17.75;;;;;18.45;69.04;100647.09;5036092;28;61202;-60
2021/09/26 01:00:13;;;;;;;;;16.00;15.25;;;;;18.41;69.05;100644.00;5036842;28;45355;-60
2021/09/26 01:02:39;;;;;;;;;17.00;13.75;;;;;18.38;68.72;100661.13;5036857;28;45346;-60
2021/09/26 01:05:05;;;;;;;;;18.00;17.25;;;;;18.36;69.06;100657.84;5035472;28;45289;-60
2021/09/26 01:07:39;;;;;;;;;20.50;17.75;;;;;18.34;68.76;100659.84;5035228;28;45422;-60
2021/09/26 01:10:07;;;;;;;;;18.00;17.00;;;;;18.31;68.99;100660.22;5019168;28;51124;-59
2021/09/26 01:12:40;;;;;;;;;15.50;15.25;;;;;18.27;69.29;100669.59;5036670;28;45250;-59
2021/09/26 01:15:41;;;;;;;;;17.00;16.25;;;;;18.27;68.57;100664.28;5035595;28;45462;-59
2021/09/26 01:18:33;;;;;;;;;18.50;17.25;;;;;18.24;68.68;100659.34;5035509;28;45523;-60
2021/09/26 01:21:07;;;;;;;;;18.00;17.00;;;;;18.22;68.79;100658.69;5033690;28;45880;-59
2021/09/26 01:24:00;;;;;;;;;16.75;16.25;;;;;18.18;69.10;100658.22;5035204;28;45292;-60
2021/09/26 01:26:40;;;;;;;;;17.25;17.25;;;;;18.16;68.90;100664.75;5035017;28;45403;-60
2021/09/26 01:29:53;;;;;;;;;13.75;13.50;;;;;18.11;68.77;100667.94;5035132;28;46557;-59
2021/09/26 01:32:18;;;;;;;;;17.25;15.00;;;;;18.07;68.76;100663.97;5016648;28;45927;-60
2021/09/26 01:34:49;;;;;;;;;15.25;13.25;;;;;18.06;69.23;100659.66;5034460;28;62429;-60
2021/09/26 01:37:20;;;;;;;;;18.75;16.75;;;;;18.03;68.74;100666.19;5018814;28;45323;-60
2021/09/26 01:40:06;;;;;;;;;16.50;15.00;;;;;17.99;69.18;100664.06;5036129;28;46264;-59
2021/09/26 01:42:50;;;;;;;;;18.25;15.25;;;;;17.95;69.35;100664.44;5034284;28;45989;-60
2021/09/26 01:45:36;;;;;;;;;18.50;14.00;;;;;17.93;69.19;100671.75;5019487;28;45400;-59
2021/09/26 01:48:09;;;;;;;;;15.50;14.75;;;;;17.94;68.97;100662.78;5036362;28;45395;-60
2021/09/26 01:50:35;;;;;;;;;19.75;15.25;;;;;17.95;69.16;100671.56;5018541;28;45572;-60
2021/09/26 01:53:00;;;;;;;;;17.25;15.75;;;;;17.94;68.97;100670.75;5017810;28;61625;-60
2021/09/26 01:55:25;;;;;;;;;17.00;13.25;;;;;17.91;68.95;100662.28;5034969;28;45353;-60
2021/09/26 01:57:52;;;;;;;;;13.75;12.75;;;;;17.91;69.19;100665.78;5034163;28;64008;-60
2021/09/26 02:00:17;;;;;;;;;19.50;16.50;;;;;17.89;68.87;100661.66;5018126;28;46407;-60
2021/09/26 02:02:43;;;;;;;;;15.75;15.00;;;;;17.87;68.97;100672.47;5035869;28;45353;-60
2021/09/26 02:05:08;;;;;;;;;21.00;17.25;;;;;17.87;68.97;100661.00;5034464;28;47022;-60
2021/09/26 02:07:38;;;;;;;;;16.25;16.00;;;;;17.85;68.69;100673.66;5034712;28;45344;-60
2021/09/26 02:10:05;;;;;;;;;15.50;14.00;;;;;17.84;68.73;100664.03;5034723;28;45467;-60
2021/09/26 02:12:30;;;;;;;;;21.25;16.00;;;;;17.81;68.65;100673.19;5035819;28;45464;-59
2021/09/26 02:14:56;;;;;;;;;17.25;14.50;;;;;17.80;69.27;100672.34;5034209;28;59525;-60
2021/09/26 02:17:22;;;;;;;;;14.75;12.25;;;;;17.78;68.89;100669.06;5033780;28;64707;-60
2021/09/26 02:19:48;;;;;;;;;20.50;17.50;;;;;17.76;69.10;100667.59;5035633;28;45499;-60
2021/09/26 02:22:13;;;;;;;;;13.50;12.50;;;;;17.75;68.88;100669.41;5017335;28;53995;-60
2021/09/26 02:24:38;;;;;;;;;13.75;13.25;;;;;17.75;69.04;100660.63;5033657;28;62030;-60
2021/09/26 02:27:04;;;;;;;;;15.25;12.50;;;;;17.72;68.99;100658.31;5018063;28;45254;-59
2021/09/26 02:29:30;;;;;;;;;14.25;14.00;;;;;17.72;68.75;100658.31;5035593;28;46433;-60
2021/09/26 02:31:55;;;;;;;;;14.50;13.25;;;;;17.68;69.05;100657.03;5033528;28;64977;-60
2021/09/26 02:34:21;;;;;;;;;15.50;14.00;;;;;17.67;68.81;100652.72;5035578;28;45226;-60
2021/09/26 02:36:46;;;;;;;;;15.00;12.50;;;;;17.63;68.82;100661.06;5034776;28;64785;-60
2021/09/26 02:39:15;;;;;;;;;15.50;14.50;;;;;17.59;68.82;100653.63;5035764;27;66405;-60
2021/09/26 02:41:56;;;;;;;;;15.50;14.25;;;;;17.59;69.09;100659.75;5017739;28;45375;-60
2021/09/26 02:44:31;;;;;;;;;14.75;14.75;;;;;17.57;68.91;100661.75;5035677;28;45363;-60
2021/09/26 02:46:58;;;;;;;;;14.00;12.50;;;;;17.56;68.91;100660.13;5035358;28;45518;-60
2021/09/26 02:49:24;;;;;;;;;17.25;14.00;;;;;17.56;69.03;100651.34;5034034;28;45426;-60
2021/09/26 02:51:49;;;;;;;;;13.25;12.75;;;;;17.55;69.00;100647.03;5033567;28;60804;-60
2021/09/26 02:54:15;;;;;;;;;18.25;16.50;;;;;17.53;68.91;100643.72;5035115;28;45367;-60
2021/09/26 02:56:40;;;;;;;;;18.00;16.50;;;;;17.50;69.20;100637.75;5021086;28;45317;-60
2021/09/26 02:59:06;;;;;;;;;16.50;14.75;;;;;17.49;68.99;100628.13;5037171;28;49325;-60
2021/09/26 03:01:31;;;;;;;;;15.00;15.00;;;;;17.49;69.04;100628.13;5036354;28;69707;-60
2021/09/26 03:04:02;;;;;;;;;15.75;13.25;;;;;17.50;69.10;100624.47;5037920;28;61733;-60
2021/09/26 03:06:27;;;;;;;;;16.25;12.75;;;;;17.50;68.97;100621.81;5038478;28;45436;-60
2021/09/26 03:08:52;;;;;;;;;13.50;13.00;;;;;17.50;69.27;100619.16;5038365;28;48808;-59
2021/09/26 03:11:18;;;;;;;;;19.00;16.75;;;;;17.50;69.29;100624.47;5037560;28;69812;-60
2021/09/26 03:13:43;;;;;;;;;16.75;14.25;;;;;17.50;69.18;100623.63;5037939;28;59885;-59
2021/09/26 03:16:08;;;;;;;;;18.50;17.00;;;;;17.49;69.43;100628.13;5037900;28;62302;-60
2021/09/26 03:18:34;;;;;;;;;17.25;15.50;;;;;17.50;69.00;100634.25;5038313;28;46381;-60
2021/09/26 03:20:59;;;;;;;;;16.00;12.25;;;;;17.49;69.31;100630.78;5037566;28;64063;-60
2021/09/26 03:23:25;;;;;;;;;15.25;13.00;;;;;17.48;69.11;100633.66;5053147;28;65545;-60
2021/09/26 03:25:50;;;;;;;;;16.00;12.75;;;;;17.46;68.97;100625.03;5057590;28;63920;-60
2021/09/26 03:28:15;;;;;;;;;11.50;9.75;;;;;17.44;69.45;100625.19;5040222;28;45427;-60
2021/09/26 03:30:41;;;;;;;;;15.00;13.50;;;;;17.41;69.30;100624.72;5039532;28;66590;-62
2021/09/26 03:33:06;;;;;;;;;14.75;12.75;;;;;17.39;69.60;100621.44;5058034;28;56562;-62
2021/09/26 03:35:31;;;;;;;;;14.50;14.25;;;;;17.37;69.35;100618.94;5058440;28;45602;-62
2021/09/26 03:37:57;;;;;;;;;14.50;11.50;;;;;17.34;69.45;100622.78;5058096;28;46159;-62
2021/09/26 03:40:22;;;;;;;;;16.25;13.25;;;;;17.31;69.45;100615.19;5057439;28;69206;-62
2021/09/26 03:42:48;;;;;;;;;15.75;15.25;;;;;17.31;69.30;100614.34;5057786;28;54948;-61
2021/09/26 03:45:13;;;;;;;;;14.00;14.00;;;;;17.30;69.50;100610.88;5057150;28;68980;-62
2021/09/26 03:47:38;;;;;;;;;17.25;14.75;;;;;17.28;69.45;100604.06;5058017;28;45437;-59
2021/09/26 03:50:04;;;;;;;;;14.25;13.50;;;;;17.27;69.56;100608.56;5057282;28;64198;-60
2021/09/26 03:52:31;;;;;;;;;15.25;13.75;;;;;17.29;69.57;100611.03;5039999;28;45311;-60
2021/09/26 03:54:57;;;;;;;;;16.50;14.00;;;;;17.27;69.55;100608.56;5058137;28;45217;-60
2021/09/26 03:57:22;;;;;;;;;15.25;14.50;;;;;17.27;69.47;100611.22;5057793;28;45293;-60
2021/09/26 03:59:47;;;;;;;;;14.00;11.75;;;;;17.24;69.79;100608.94;5057291;28;59119;-60
2021/09/26 04:02:13;;;;;;;;;14.25;12.75;;;;;17.23;69.82;100607.28;5039936;28;45820;-60
2021/09/26 04:04:38;;;;;;;;;22.00;16.25;;;;;17.22;69.91;100621.56;5057515;28;45249;-60
2021/09/26 04:07:04;;;;;;;;;15.75;13.25;;;;;17.23;70.00;100615.25;5057535;28;45614;-60
2021/09/26 04:09:29;;;;;;;;;16.00;16.00;;;;;17.24;70.10;100613.41;5057760;28;45269;-60
2021/09/26 04:11:54;;;;;;;;;17.50;15.25;;;;;17.24;70.32;100611.59;5056891;28;63024;-60
2021/09/26 04:14:20;;;;;;;;;16.00;13.75;;;;;17.25;70.18;100610.59;5056898;28;68314;-60
2021/09/26 04:16:49;;;;;;;;;16.25;14.50;;;;;17.26;70.11;100608.72;5056636;28;70140;-59
2021/09/26 04:19:14;;;;;;;;;15.25;15.00;;;;;17.26;70.33;100606.06;5057006;28;45917;-60
2021/09/26 04:21:40;;;;;;;;;14.75;14.00;;;;;17.26;70.67;100596.31;5057269;28;45585;-59
2021/09/26 04:24:05;;;;;;;;;12.75;11.50;;;;;17.29;70.54;100598.59;5056738;28;69224;-59
2021/09/26 04:26:31;;;;;;;;;16.25;15.00;;;;;17.29;70.49;100582.66;5056606;28;66774;-60
2021/09/26 04:28:56;;;;;;;;;19.50;16.00;;;;;17.30;70.69;100589.63;5056611;28;68102;-60
2021/09/26 04:31:22;;;;;;;;;16.00;14.50;;;;;17.32;70.61;100592.94;5056723;28;58609;-60
2021/09/26 04:33:47;;;;;;;;;14.25;12.75;;;;;17.33;70.68;100594.59;5057293;28;46211;-59
2021/09/26 04:36:12;;;;;;;;;17.00;13.00;;;;;17.34;70.68;100585.63;5056104;28;72381;-59
2021/09/26 04:38:38;;;;;;;;;22.75;19.50;;;;;17.35;70.88;100595.22;5057404;28;45530;-60
2021/09/26 04:41:03;;;;;;;;;16.00;12.75;;;;;17.35;70.73;100597.88;5057472;28;45419;-60
2021/09/26 04:43:29;;;;;;;;;13.00;13.00;;;;;17.37;70.52;100592.38;5057465;28;45225;-60
2021/09/26 04:45:54;;;;;;;;;15.75;12.75;;;;;17.38;70.89;100590.56;5056904;28;45484;-59
2021/09/26 04:48:19;;;;;;;;;15.00;13.75;;;;;17.39;70.63;100587.72;5056257;28;73029;-60
2021/09/26 04:50:45;;;;;;;;;15.50;14.50;;;;;17.38;70.65;100586.06;5057267;28;45239;-60
2021/09/26 04:53:11;;;;;;;;;15.00;12.25;;;;;17.40;70.71;100589.38;5057239;28;45667;-60
2021/09/26 04:55:36;;;;;;;;;17.25;15.75;;;;;17.38;70.84;100583.41;5056826;28;49097;-59
2021/09/26 04:58:03;;;;;;;;;16.50;14.25;;;;;17.39;70.82;100577.09;5056321;28;65370;-60
2021/09/26 05:00:29;;;;;;;;;15.00;13.25;;;;;17.38;70.71;100582.59;5057032;28;45260;-60
2021/09/26 05:02:56;;;;;;;;;13.75;13.50;;;;;17.37;70.71;100586.25;5056310;28;65755;-59
2021/09/26 05:05:21;;;;;;;;;18.00;16.00;;;;;17.37;71.00;100588.91;5056722;28;46277;-60
2021/09/26 05:07:47;;;;;;;;;15.50;14.00;;;;;17.36;70.84;100590.72;5056773;28;45399;-60
2021/09/26 05:10:12;;;;;;;;;15.00;13.75;;;;;17.36;70.69;100601.34;5056885;28;45324;-59
2021/09/26 05:12:38;;;;;;;;;13.50;13.50;;;;;17.35;70.86;100603.19;5055857;28;67425;-60
2021/09/26 05:15:04;;;;;;;;;15.25;14.75;;;;;17.35;71.01;100605.00;5056660;28;46348;-60
2021/09/26 05:17:33;;;;;;;;;20.25;16.50;;;;;17.34;71.00;100604.19;5055866;28;45782;-59
2021/09/26 05:19:58;;;;;;;;;16.50;15.50;;;;;17.35;71.00;100611.16;5056747;28;45435;-60
2021/09/26 05:22:24;;;;;;;;;15.00;14.25;;;;;17.36;70.84;100614.63;5055730;28;59042;-60
2021/09/26 05:24:50;;;;;;;;;14.75;14.25;;;;;17.38;70.73;100617.13;5056573;28;46261;-60
2021/09/26 05:27:15;;;;;;;;;18.50;14.25;;;;;17.36;71.02;100614.63;5037930;28;59680;-59
2021/09/26 05:29:41;;;;;;;;;20.50;16.75;;;;;17.36;70.86;100625.25;5056557;28;45212;-60
2021/09/26 05:32:07;;;;;;;;;19.25;14.75;;;;;17.36;70.91;100630.56;5055717;28;68891;-60
2021/09/26 05:34:32;;;;;;;;;22.25;17.75;;;;;17.35;71.11;100626.25;5056115;28;48696;-60
2021/09/26 05:36:58;;;;;;;;;14.75;13.25;;;;;17.36;71.11;100635.88;5055389;28;71368;-60
2021/09/26 05:39:25;;;;;;;;;15.50;13.25;;;;;17.35;71.21;100640.38;5038652;28;45325;-60
2021/09/26 05:41:51;;;;;;;;;18.25;15.50;;;;;17.35;71.25;100626.25;5056467;28;45371;-60
2021/09/26 05:44:17;;;;;;;;;18.75;15.25;;;;;17.34;71.46;100633.41;5056186;28;46160;-60
2021/09/26 05:46:42;;;;;;;;;15.75;13.75;;;;;17.38;71.28;100639.19;5056299;28;45485;-60
2021/09/26 05:49:07;;;;;;;;;17.00;15.00;;;;;17.40;71.55;100644.34;5055507;28;64884;-60
2021/09/26 05:51:33;;;;;;;;;19.25;16.25;;;;;17.41;71.35;100638.81;5055533;28;59098;-59
2021/09/26 05:53:58;;;;;;;;;16.25;13.50;;;;;17.43;71.49;100633.34;5055294;28;72980;-60
2021/09/26 05:56:24;;;;;;;;;15.75;15.25;;;;;17.43;71.73;100643.97;5055301;28;69491;-60
2021/09/26 05:58:49;;;;;;;;;16.00;15.50;;;;;17.48;71.96;100652.25;5056353;28;45390;-60
2021/09/26 06:01:14;;;;;;;;;16.00;16.00;;;;;17.50;71.94;100661.66;5056180;28;45335;-60
2021/09/26 06:03:41;;;;;;;;;15.50;15.50;;;;;17.52;72.26;100656.16;5055739;28;47799;-60
2021/09/26 06:06:07;;;;;;;;;15.25;14.50;;;;;17.56;72.37;100669.94;5055971;28;45371;-60
2021/09/26 06:08:33;;;;;;;;;15.25;13.00;;;;;17.57;72.20;100661.75;5055788;28;45405;-60
2021/09/26 06:10:58;;;;;;;;;14.25;14.25;;;;;17.58;72.37;100662.59;5054899;28;70558;-60
2021/09/26 06:13:23;;;;;;;;;19.00;16.00;;;;;17.63;72.52;100668.22;5055768;28;45599;-60
2021/09/26 06:15:49;;;;;;;;;16.75;14.50;;;;;17.67;72.66;100671.31;5054867;28;70020;-60
2021/09/26 06:18:14;;;;;;;;;16.25;16.25;;;;;17.69;72.79;100675.47;5056100;28;45827;-60
2021/09/26 06:20:40;;;;;;;;;18.25;16.25;;;;;17.73;72.65;100676.75;5037810;28;45581;-60
2021/09/26 06:23:05;;;;;;;;;21.50;17.75;;;;;17.76;72.79;100686.19;5054816;28;68513;-60
2021/09/26 06:25:30;;;;;;;;;17.50;16.00;;;;;17.80;72.55;100690.16;5054872;28;66088;-60
2021/09/26 06:27:56;;;;;;;;;21.25;16.25;;;;;17.80;72.95;100693.63;5056183;28;45311;-60
2021/09/26 06:30:22;;;;;;;;;20.25;18.25;;;;;17.85;73.04;100692.25;5041177;28;45356;-60
2021/09/26 06:32:47;;;;;;;;;17.75;15.75;;;;;17.87;73.18;100688.41;5059164;28;46386;-60
2021/09/26 06:35:12;;;;;;;;;19.50;16.75;;;;;17.88;73.10;100684.75;5058354;28;65737;-60
2021/09/26 06:37:38;;;;;;;;;23.25;19.00;;;;;17.90;72.87;100682.75;5058487;28;61995;-60
2021/09/26 06:40:04;;;;;;;;;19.00;19.00;;;;;17.92;72.92;100688.72;5058803;28;53324;-59
2021/09/26 06:42:30;;;;;;;;;21.00;19.25;;;;;17.94;72.77;100693.84;5058753;28;46613;-60
2021/09/26 06:44:55;;;;;;;;;19.00;16.25;;;;;17.94;73.04;100684.03;5058529;28;56175;-60
2021/09/26 06:47:21;;;;;;;;;16.50;16.25;;;;;17.94;72.89;100678.72;5058332;28;63473;-60
2021/09/26 06:49:46;;;;;;;;;21.00;17.50;;;;;17.96;72.92;100689.16;5058973;28;45466;-60
2021/09/26 06:52:14;;;;;;;;;17.25;16.25;;;;;17.97;72.48;100700.63;5058856;28;46301;-59
2021/09/26 06:54:40;;;;;;;;;22.75;19.25;;;;;17.99;72.75;100706.59;5058955;28;45790;-60
2021/09/26 06:57:05;;;;;;;;;17.75;16.00;;;;;18.01;72.65;100712.59;5058735;28;45441;-59
2021/09/26 06:59:31;;;;;;;;;18.75;16.50;;;;;18.03;72.56;100713.22;5058778;28;45339;-60
2021/09/26 07:01:57;;;;;;;;;18.50;17.25;;;;;18.06;72.66;100713.69;5058256;28;46390;-60
2021/09/26 07:04:22;;;;;;;;;21.25;17.00;;;;;18.08;72.78;100711.69;5057720;28;61366;-60
2021/09/26 07:06:47;;;;;;;;;15.50;15.25;;;;;18.10;72.61;100716.81;5058092;28;60069;-61
2021/09/26 07:09:13;;;;;;;;;17.50;15.25;;;;;18.13;72.66;100719.09;5058768;28;48222;-62
2021/09/26 07:11:38;;;;;;;;;23.50;16.75;;;;;18.16;72.72;100726.72;5058173;28;51924;-60
2021/09/26 07:14:03;;;;;;;;;17.00;13.50;;;;;18.19;72.74;100725.53;5057773;28;65267;-59
2021/09/26 07:16:29;;;;;;;;;20.00;18.25;;;;;18.21;72.28;100727.00;5040359;28;45722;-60
2021/09/26 07:18:54;;;;;;;;;18.25;16.50;;;;;18.24;72.29;100726.63;5058683;28;45399;-60
2021/09/26 07:21:20;;;;;;;;;15.75;14.75;;;;;18.28;72.27;100727.09;5057743;28;63735;-60
2021/09/26 07:23:45;;;;;;;;;18.25;17.25;;;;;18.32;71.85;100727.56;5058188;28;45435;-60
2021/09/26 07:26:11;;;;;;;;;16.50;15.50;;;;;18.35;72.12;100728.00;5040337;28;45460;-60
2021/09/26 07:28:36;;;;;;;;;12.25;9.75;;;;;18.38;71.80;100737.47;5057404;28;63341;-60
2021/09/26 07:31:02;;;;;;;;;16.50;13.50;;;;;18.40;71.76;100735.47;5057360;28;65697;-60
2021/09/26 07:33:27;;;;;;;;;22.75;17.25;;;;;18.44;71.54;100744.72;5058124;28;45243;-60
2021/09/26 07:35:52;;;;;;;;;16.75;15.25;;;;;18.46;71.62;100748.03;5058292;28;45343;-60
2021/09/26 07:38:18;;;;;;;;;17.75;15.25;;;;;18.48;71.37;100754.00;5039124;28;66616;-60
2021/09/26 07:40:43;;;;;;;;;19.50;16.50;;;;;18.50;71.48;100756.47;5056393;28;69298;-60
2021/09/26 07:43:09;;;;;;;;;15.25;15.00;;;;;18.52;71.34;100749.13;5057181;28;69038;-60
2021/09/26 07:45:35;;;;;;;;;17.00;16.75;;;;;18.54;71.47;100747.94;5057336;28;61310;-60
2021/09/26 07:48:00;;;;;;;;;19.50;16.00;;;;;18.57;71.61;100752.06;5058283;28;45450;-60
2021/09/26 07:50:26;;;;;;;;;16.50;16.50;;;;;18.59;71.47;100757.19;5058092;28;46067;-59
2021/09/26 07:52:52;;;;;;;;;20.00;15.25;;;;;18.61;71.10;100763.16;5057788;28;45296;-60
2021/09/26 07:55:18;;;;;;;;;15.75;15.75;;;;;18.62;70.88;100768.31;5040029;28;45455;-60
2021/09/26 07:57:43;;;;;;;;;18.75;17.50;;;;;18.64;71.02;100776.94;5057980;28;45447;-60
2021/09/26 08:00:09;;;;;;;;;19.00;16.25;;;;;18.65;70.82;100786.56;5057767;28;46672;-60
2021/09/26 08:02:34;;;;;;;;;20.50;17.50;;;;;18.66;71.01;100780.25;5057772;28;45277;-60
2021/09/26 08:05:00;;;;;;;;;18.75;17.50;;;;;18.68;70.99;100788.03;5057624;28;49880;-60
2021/09/26 08:07:25;;;;;;;;;20.25;18.00;;;;;18.70;71.12;100780.69;5056948;28;65558;-60
2021/09/26 08:09:51;;;;;;;;;16.00;15.75;;;;;18.71;70.64;100786.84;5057626;28;46442;-60
2021/09/26 08:12:16;;;;;;;;;20.00;18.75;;;;;18.74;70.97;100781.97;5057621;28;45232;-60
2021/09/26 08:14:42;;;;;;;;;15.25;15.25;;;;;18.75;70.87;100790.78;5056618;28;68336;-61
2021/09/26 08:17:07;;;;;;;;;19.25;16.00;;;;;18.76;70.82;100790.59;5056868;28;62145;-60
2021/09/26 08:19:35;;;;;;;;;18.00;15.25;;;;;18.79;70.66;100800.88;5057394;28;46433;-62
2021/09/26 08:22:02;;;;;;;;;21.00;17.50;;;;;18.80;70.43;100799.88;5039822;28;45378;-60
2021/09/26 08:24:27;;;;;;;;;15.25;14.75;;;;;18.82;70.29;100797.84;5057728;28;45442;-60
2021/09/26 08:26:53;;;;;;;;;19.25;17.00;;;;;18.84;70.03;100795.84;5057436;28;45366;-60
2021/09/26 08:29:18;;;;;;;;;15.50;14.00;;;;;18.86;70.37;100803.63;5056266;28;75179;-60
2021/09/26 08:31:44;;;;;;;;;16.50;15.25;;;;;18.89;70.25;100805.09;5056406;28;70359;-60
2021/09/26 08:34:09;;;;;;;;;17.00;15.75;;;;;18.90;70.48;100809.41;5057528;28;45720;-60
2021/09/26 08:36:34;;;;;;;;;16.25;13.75;;;;;18.92;70.38;100799.41;5038426;28;64412;-59
2021/09/26 08:39:00;;;;;;;;;15.50;14.25;;;;;18.94;70.18;100798.19;5056190;28;67586;-60
2021/09/26 08:41:25;;;;;;;;;16.00;14.25;;;;;18.96;70.11;100798.88;5038447;28;67930;-61
2021/09/26 08:43:52;;;;;;;;;19.00;14.50;;;;;19.00;70.11;100802.00;5022662;28;45344;-61
2021/09/26 08:46:17;;;;;;;;;14.75;12.50;;;;;19.04;69.95;100795.31;5057177;28;45387;-62
2021/09/26 08:48:43;;;;;;;;;13.75;13.25;;;;;19.07;69.95;100794.09;5056180;28;71260;-62
2021/09/26 08:51:11;;;;;;;;;17.50;14.25;;;;;19.11;70.01;100792.72;5056570;28;45453;-61
2021/09/26 08:53:37;;;;;;;;;14.00;12.00;;;;;19.18;69.83;100801.63;5056807;28;45265;-62
2021/09/26 08:56:02;;;;;;;;;15.50;14.75;;;;;19.33;69.43;100800.75;5057255;28;45575;-62
2021/09/26 08:58:28;;;;;;;;;14.50;14.00;;;;;19.52;69.80;100796.66;5056896;28;45500;-61
2021/09/26 09:00:53;;;;;;;;;17.50;15.25;;;;;19.69;69.14;100800.72;5056639;28;45337;-61
2021/09/26 09:03:19;;;;;;;;;19.50;16.75;;;;;19.85;68.58;100794.31;5038818;28;45272;-61
2021/09/26 09:05:49;;;;;;;;;16.00;12.25;;;;;19.99;68.44;100800.63;5056771;28;45333;-61
2021/09/26 09:08:19;;;;;;;;;14.00;11.75;;;;;20.09;67.59;100794.94;5022780;28;46505;-62
2021/09/26 09:10:48;;;;;;;;;16.75;12.50;;;;;20.15;66.77;100806.69;5056551;28;45387;-61
2021/09/26 09:13:15;;;;;;;;;16.75;14.00;;;;;20.20;66.60;100801.59;5038850;28;45248;-61
2021/09/26 09:15:41;;;;;;;;;15.25;12.50;;;;;20.22;66.24;100801.41;5056436;28;45401;-59
2021/09/26 09:18:07;;;;;;;;;13.75;13.00;;;;;20.23;66.49;100801.22;5056036;28;46182;-59
2021/09/26 09:20:34;;;;;;;;;11.25;11.25;;;;;20.24;65.78;100805.53;5056176;28;45318;-59
2021/09/26 09:23:05;;;;;;;;;16.75;12.75;;;;;20.25;66.10;100809.03;5056336;28;45383;-61
2021/09/26 09:25:31;;;;;;;;;16.00;14.00;;;;;20.24;65.71;100810.88;5056419;28;45439;-61
2021/09/26 09:27:57;;;;;;;;;12.75;12.00;;;;;20.24;65.85;100808.19;5056457;28;45659;-61
2021/09/26 09:30:33;;;;;;;;;12.50;12.00;;;;;20.26;65.69;100813.34;5056499;28;45300;-60
2021/09/26 09:32:58;;;;;;;;;15.25;13.75;;;;;20.25;65.15;100812.50;5056455;28;45458;-61
2021/09/26 09:35:24;;;;;;;;;17.25;14.50;;;;;20.27;65.76;100817.66;5055990;28;45356;-60
2021/09/26 09:37:49;;;;;;;;;13.25;13.00;;;;;20.32;65.09;100807.25;5055982;28;45368;-60
2021/09/26 09:40:16;;;;;;;;;17.75;13.00;;;;;20.39;65.51;100813.47;5055420;28;67540;-61
2021/09/26 09:42:48;;;;;;;;;16.75;13.50;;;;;20.53;65.30;100809.03;5056168;28;45457;-61
2021/09/26 09:45:23;;;;;;;;;16.50;14.25;;;;;20.72;64.89;100815.50;5056175;28;45412;-60
2021/09/26 09:47:58;;;;;;;;;12.50;12.50;;;;;20.98;64.20;100811.34;5055793;28;45445;-60
2021/09/26 09:50:50;;;;;;;;;15.00;13.00;;;;;21.26;64.08;100806.94;5055960;28;45831;-61
2021/09/26 09:53:23;;;;;;;;;13.50;13.25;;;;;21.57;63.22;100808.25;5055901;28;46204;-60
2021/09/26 09:56:09;;;;;;;;;11.75;11.50;;;;;21.89;62.96;100806.69;5056139;28;45590;-61
2021/09/26 09:58:35;;;;;;;;;13.75;13.50;;;;;22.18;61.44;100795.78;5055906;28;45474;-61
2021/09/26 10:01:01;;;;;;;;;11.75;11.00;;;;;22.38;60.03;100799.25;5055753;28;45966;-61
2021/09/26 10:03:51;;;;;;;;;13.25;13.00;;;;;22.59;59.96;100816.16;5057444;28;45315;-60
2021/09/26 10:06:25;;;;;;;;;11.00;10.25;;;;;22.72;59.77;100803.75;5059328;28;45307;-60
2021/09/26 10:08:51;;;;;;;;;14.25;11.50;;;;;22.80;59.16;100808.84;5059296;28;45495;-60
2021/09/26 10:11:17;;;;;;;;;14.25;12.25;;;;;22.86;58.63;100805.34;5041376;28;45830;-60
2021/09/26 10:13:42;;;;;;;;;16.50;13.50;;;;;22.88;58.19;100800.59;5059264;28;45182;-61
2021/09/26 10:16:08;;;;;;;;;12.25;11.00;;;;;22.91;58.58;100802.03;5041401;28;45416;-60
2021/09/26 10:18:34;;;;;;;;;15.50;14.00;;;;;22.97;58.13;100802.00;5059151;28;45705;-62
2021/09/26 10:21:01;;;;;;;;;16.25;14.75;;;;;23.06;58.16;100810.63;5059283;28;45839;-60
2021/09/26 10:23:26;;;;;;;;;13.50;11.25;;;;;23.17;58.00;100805.63;5059085;28;45327;-61
2021/09/26 10:25:52;;;;;;;;;15.00;15.00;;;;;23.25;56.98;100798.22;5074835;28;45639;-60
2021/09/26 10:28:21;;;;;;;;;13.00;12.00;;;;;23.29;56.90;100803.97;5040927;28;46103;-60
2021/09/26 10:30:47;;;;;;;;;13.00;12.50;;;;;23.32;56.79;100805.38;5025066;28;45451;-60
2021/09/26 10:33:12;;;;;;;;;11.50;10.50;;;;;23.32;56.95;100808.06;5023607;28;62522;-60
2021/09/26 10:35:38;;;;;;;;;13.75;12.25;;;;;23.31;57.00;100809.13;5023772;28;66148;-60
2021/09/26 10:38:09;;;;;;;;;17.00;12.00;;;;;23.30;56.76;100812.84;5040761;28;46452;-60
2021/09/26 10:40:36;;;;;;;;;14.50;14.00;;;;;23.24;56.62;100801.94;5025946;28;45909;-60
2021/09/26 10:43:16;;;;;;;;;14.50;11.00;;;;;23.20;56.74;100806.03;5040963;28;45399;-61
2021/09/26 10:45:41;;;;;;;;;16.75;12.75;;;;;23.15;56.58;100802.34;5041037;28;45370;-60
2021/09/26 10:48:07;;;;;;;;;13.00;12.50;;;;;23.08;56.56;100805.88;5057921;28;73097;-60
2021/09/26 10:50:37;;;;;;;;;18.00;16.00;;;;;23.04;56.63;100799.31;5040214;28;60496;-60
2021/09/26 10:53:13;;;;;;;;;12.50;12.50;;;;;23.00;56.91;100802.63;5058395;28;45259;-60
2021/09/26 10:55:40;;;;;;;;;17.00;13.00;;;;;22.96;56.88;100808.41;5040865;28;45343;-60
2021/09/26 10:58:05;;;;;;;;;16.25;11.00;;;;;22.93;56.71;100822.22;5058687;28;45463;-60
2021/09/26 11:00:38;;;;;;;;;12.00;12.00;;;;;22.87;57.06;100806.97;5058420;28;45560;-60
2021/09/26 11:03:07;;;;;;;;;14.50;12.25;;;;;22.88;57.26;100811.31;5058358;28;45344;-60
2021/09/26 11:05:34;;;;;;;;;12.00;12.00;;;;;22.87;57.12;100809.66;5058253;28;45510;-60
2021/09/26 11:08:00;;;;;;;;;17.50;14.50;;;;;22.86;57.17;100799.97;5058297;28;45435;-60
2021/09/26 11:10:47;;;;;;;;;14.00;13.00;;;;;22.83;56.82;100805.75;5023809;28;45413;-60